Time;durP1;ratioP1;P1;durP2;ratioP2;P2;SDS_P1;SDS_P2;PMS_P1;PMS_P2;Temp;Humidity;BMP_temperature;BMP_pressure;BME280_temperature;BME280_humidity;BME280_pressure;Samples;Min_cycle;Max_cycle;Signal;HPM_P1;HPM_P2
2022/05/06 00:01:14;;;;;;;7.23;5.60;;;9.30;99.90;;;;;;5114168;27;20227;-60
2022/05/06 00:03:44;;;;;;;7.67;5.93;;;9.30;99.90;;;;;;5112701;27;20238;-60
2022/05/06 00:06:13;;;;;;;7.83;5.83;;;9.30;99.90;;;;;;5113981;28;20230;-59
2022/05/06 00:08:41;;;;;;;7.20;6.37;;;9.30;99.90;;;;;;5113343;27;20258;-60
2022/05/06 00:11:09;;;;;;;8.10;5.80;;;9.30;99.90;;;;;;5114428;28;20230;-59
2022/05/06 00:13:37;;;;;;;7.50;6.03;;;9.20;99.90;;;;;;5112670;28;20287;-59
2022/05/06 00:16:05;;;;;;;7.17;6.20;;;9.20;99.90;;;;;;5114006;27;20229;-59
2022/05/06 00:18:35;;;;;;;8.63;6.20;;;9.20;99.90;;;;;;5113930;28;20261;-60
2022/05/06 00:21:04;;;;;;;7.73;6.20;;;9.10;99.90;;;;;;5113504;27;20237;-59
2022/05/06 00:23:33;;;;;;;8.40;6.20;;;9.10;99.90;;;;;;5111921;28;20288;-59
2022/05/06 00:26:03;;;;;;;8.27;6.40;;;9.10;99.90;;;;;;5113574;27;20242;-59
2022/05/06 00:28:31;;;;;;;8.10;6.23;;;9.10;99.90;;;;;;5113516;28;20329;-60
2022/05/06 00:31:00;;;;;;;7.73;5.80;;;9.00;99.90;;;;;;5111808;28;20246;-59
2022/05/06 00:33:28;;;;;;;8.27;5.77;;;9.00;99.90;;;;;;5111781;28;20226;-59
2022/05/06 00:35:58;;;;;;;7.43;5.67;;;8.90;99.90;;;;;;5113466;28;20238;-59
2022/05/06 00:38:28;;;;;;;7.37;5.90;;;8.90;99.90;;;;;;5111727;28;20234;-60
2022/05/06 00:40:56;;;;;;;6.77;5.70;;;8.90;99.90;;;;;;5113226;28;20242;-59
2022/05/06 00:43:25;;;;;;;7.07;5.93;;;8.90;99.90;;;;;;5109491;28;20232;-60
2022/05/06 00:45:56;;;;;;;7.53;5.70;;;8.80;99.90;;;;;;5112111;28;20238;-59
2022/05/06 00:48:28;;;;;;;6.03;5.43;;;8.80;99.90;;;;;;5113260;27;20244;-59
2022/05/06 00:50:59;;;;;;;7.07;5.97;;;8.80;99.90;;;;;;5116252;27;20226;-59
2022/05/06 00:53:30;;;;;;;7.87;6.53;;;8.80;99.90;;;;;;5130085;27;20230;-59
2022/05/06 00:55:58;;;;;;;10.53;6.80;;;8.80;99.90;;;;;;5114691;27;20229;-59
2022/05/06 00:58:30;;;;;;;7.10;6.00;;;8.70;99.90;;;;;;5115810;27;20237;-60
2022/05/06 01:00:58;;;;;;;7.27;6.13;;;8.70;99.90;;;;;;5133373;27;20589;-59
2022/05/06 01:03:26;;;;;;;6.73;6.03;;;8.70;99.90;;;;;;5131914;27;20637;-60
2022/05/06 01:05:55;;;;;;;8.03;5.83;;;8.70;99.90;;;;;;5114144;27;20282;-59
2022/05/06 01:08:23;;;;;;;8.93;5.97;;;8.60;99.90;;;;;;5114698;27;20229;-59
2022/05/06 01:10:54;;;;;;;6.50;5.67;;;8.60;99.90;;;;;;5115240;27;20279;-59
2022/05/06 01:13:23;;;;;;;6.60;5.80;;;8.60;99.90;;;;;;5114701;27;20254;-60
2022/05/06 01:15:55;;;;;;;6.90;5.90;;;8.60;99.90;;;;;;5109436;27;20238;-60
2022/05/06 01:18:30;;;;;;;9.63;6.10;;;8.60;99.90;;;;;;5097041;28;20244;-59
2022/05/06 01:21:01;;;;;;;7.57;6.10;;;8.50;99.90;;;;;;5112415;27;20235;-59
2022/05/06 01:23:31;;;;;;;7.40;6.60;;;8.50;99.90;;;;;;5111028;27;20317;-59
2022/05/06 01:26:00;;;;;;;8.77;6.57;;;8.50;99.90;;;;;;5112589;27;20286;-59
2022/05/06 01:28:30;;;;;;;9.60;6.50;;;8.40;99.90;;;;;;5112356;27;20252;-59
2022/05/06 01:31:01;;;;;;;8.13;6.73;;;8.50;99.90;;;;;;5112561;27;20241;-59
2022/05/06 01:33:30;;;;;;;7.33;6.37;;;8.40;99.90;;;;;;5110875;27;20370;-59
2022/05/06 01:36:00;;;;;;;9.00;6.50;;;8.40;99.90;;;;;;5112092;27;20276;-59
2022/05/06 01:38:35;;;;;;;10.23;5.97;;;8.40;99.90;;;;;;5112202;27;20230;-59
2022/05/06 01:41:08;;;;;;;8.43;6.80;;;8.40;99.90;;;;;;5111044;27;20233;-59
2022/05/06 01:43:57;;;;;;;9.53;6.83;;;8.30;99.90;;;;;;5110368;27;20368;-59
2022/05/06 01:46:28;;;;;;;8.33;6.80;;;8.30;99.90;;;;;;5112159;27;20275;-59
2022/05/06 01:49:03;;;;;;;7.47;6.30;;;8.30;99.90;;;;;;5111901;27;20234;-59
2022/05/06 01:51:34;;;;;;;11.20;7.57;;;8.30;99.90;;;;;;5098356;28;20322;-59
2022/05/06 01:54:08;;;;;;;9.50;6.83;;;8.20;99.90;;;;;;5108787;28;20241;-59
2022/05/06 01:56:39;;;;;;;10.10;7.90;;;8.30;99.90;;;;;;5095852;28;20239;-59
2022/05/06 01:59:07;;;;;;;9.93;6.67;;;8.20;99.90;;;;;;5106503;28;20571;-59
2022/05/06 02:01:35;;;;;;;10.77;7.47;;;8.20;99.90;;;;;;5110630;27;20229;-59
2022/05/06 02:06:51;;;;;;;10.20;7.03;;;8.20;99.90;;;;;;5126660;27;20234;-59
2022/05/06 02:09:24;;;;;;;10.37;7.20;;;8.10;99.90;;;;;;5110421;27;20279;-59
2022/05/06 02:11:56;;;;;;;10.60;7.43;;;8.10;99.90;;;;;;5110172;27;20230;-62
2022/05/06 02:14:36;;;;;;;8.17;6.80;;;8.10;99.90;;;;;;5109782;27;20316;-59
2022/05/06 02:17:23;;;;;;;10.20;7.73;;;8.10;99.90;;;;;;5132119;27;20255;-59
2022/05/06 02:20:05;;;;;;;8.23;6.67;;;8.10;99.90;;;;;;5112913;27;20307;-59
2022/05/06 02:22:56;;;;;;;8.60;6.40;;;8.00;99.90;;;;;;5091057;27;20256;-59
2022/05/06 02:25:52;;;;;;;11.37;7.33;;;8.00;99.90;;;;;;5100439;27;20230;-59
2022/05/06 02:28:38;;;;;;;9.57;7.87;;;8.00;99.90;;;;;;5084842;28;20225;-59
2022/05/06 02:33:56;;;;;;;11.30;7.30;;;7.90;99.90;;;;;;5129868;27;20232;-59
2022/05/06 02:36:28;;;;;;;9.50;7.73;;;7.90;99.90;;;;;;5111620;27;20233;-60
2022/05/06 02:38:57;;;;;;;8.73;7.47;;;7.90;99.90;;;;;;5113082;27;20237;-59
2022/05/06 02:41:27;;;;;;;10.43;7.83;;;7.90;99.90;;;;;;5113272;27;20274;-60
2022/05/06 02:43:57;;;;;;;9.23;7.63;;;7.90;99.90;;;;;;5130558;27;20235;-59
2022/05/06 02:46:30;;;;;;;10.40;7.40;;;7.90;99.90;;;;;;5131485;27;20229;-59
2022/05/06 02:48:59;;;;;;;11.13;7.80;;;7.80;99.90;;;;;;5112175;27;20236;-59
2022/05/06 02:51:28;;;;;;;10.17;7.67;;;7.80;99.90;;;;;;5131423;27;20229;-59
2022/05/06 02:53:57;;;;;;;9.77;7.63;;;7.80;99.90;;;;;;5128101;27;20248;-59
2022/05/06 02:56:32;;;;;;;10.77;7.53;;;7.80;99.90;;;;;;5113361;28;20229;-59
2022/05/06 02:59:04;;;;;;;10.13;7.53;;;7.70;99.90;;;;;;5114861;28;20290;-61
2022/05/06 03:01:35;;;;;;;11.17;8.13;;;7.70;99.90;;;;;;5112888;28;20740;-59
2022/05/06 03:04:11;;;;;;;11.03;7.80;;;7.70;99.90;;;;;;5090488;28;20232;-60
2022/05/06 03:06:44;;;;;;;8.70;7.40;;;7.70;99.90;;;;;;5101782;28;20238;-59
2022/05/06 03:09:16;;;;;;;11.13;7.70;;;7.70;99.90;;;;;;5106835;28;20684;-59
2022/05/06 03:11:47;;;;;;;10.20;8.13;;;7.60;99.90;;;;;;5089260;28;20242;-59
2022/05/06 03:14:19;;;;;;;11.47;7.50;;;7.60;99.90;;;;;;5107704;28;20328;-59
2022/05/06 03:17:03;;;;;;;9.40;7.47;;;7.60;99.90;;;;;;5114067;27;20237;-59
2022/05/06 03:19:31;;;;;;;10.20;7.33;;;7.60;99.90;;;;;;5113573;27;20241;-59
2022/05/06 03:22:01;;;;;;;10.67;8.57;;;7.50;99.90;;;;;;5114800;27;20237;-59
2022/05/06 03:24:29;;;;;;;10.73;8.03;;;7.50;99.90;;;;;;5107039;27;20249;-59
2022/05/06 03:26:58;;;;;;;11.10;7.50;;;7.50;99.90;;;;;;5125047;27;20243;-59
2022/05/06 03:29:27;;;;;;;8.63;6.70;;;7.50;99.90;;;;;;5134476;27;20251;-60
2022/05/06 03:31:58;;;;;;;10.03;7.50;;;7.50;99.90;;;;;;5109951;27;20312;-59
2022/05/06 03:34:27;;;;;;;9.37;6.97;;;7.40;99.90;;;;;;5114816;27;20243;-59
2022/05/06 03:36:55;;;;;;;11.60;9.10;;;7.50;99.90;;;;;;5134743;27;20267;-59
2022/05/06 03:39:24;;;;;;;9.13;7.30;;;7.40;99.90;;;;;;5116412;27;20235;-59
2022/05/06 03:42:01;;;;;;;9.87;7.90;;;7.40;99.90;;;;;;5116240;27;20273;-59
2022/05/06 03:44:31;;;;;;;9.80;7.43;;;7.40;99.90;;;;;;5109477;27;20244;-59
2022/05/06 03:47:00;;;;;;;9.73;8.27;;;7.40;99.90;;;;;;5116508;27;20265;-59
2022/05/06 03:49:35;;;;;;;13.03;8.93;;;7.40;99.90;;;;;;5116000;27;20217;-59
2022/05/06 03:52:04;;;;;;;10.47;8.40;;;7.40;99.90;;;;;;5116119;27;20722;-60
2022/05/06 03:54:33;;;;;;;12.50;8.57;;;7.40;99.90;;;;;;5115766;27;20245;-60
2022/05/06 03:57:03;;;;;;;12.77;9.03;;;7.40;99.90;;;;;;5115057;27;20233;-59
2022/05/06 03:59:31;;;;;;;13.07;9.40;;;7.40;99.90;;;;;;5115875;27;20278;-59
2022/05/06 04:02:07;;;;;;;13.67;8.47;;;7.40;99.90;;;;;;5114819;27;20233;-61
2022/05/06 04:04:36;;;;;;;10.97;8.63;;;7.40;99.90;;;;;;5133287;27;20588;-59
2022/05/06 04:07:08;;;;;;;11.93;8.73;;;7.40;99.90;;;;;;5116388;27;20286;-59
2022/05/06 04:09:44;;;;;;;12.63;8.07;;;7.40;99.90;;;;;;5101754;28;20302;-61
2022/05/06 04:12:14;;;;;;;10.57;8.47;;;7.40;99.90;;;;;;5102155;27;20730;-59
2022/05/06 04:14:49;;;;;;;10.63;8.87;;;7.40;99.90;;;;;;5131252;27;20676;-59
2022/05/06 04:17:17;;;;;;;9.93;8.70;;;7.50;99.90;;;;;;5112205;27;20629;-59
2022/05/06 04:25:21;;;;;;;11.97;9.23;;;7.60;99.90;;;;;;5114058;27;20229;-59
2022/05/06 04:27:52;;;;;;;12.80;9.00;;;7.70;99.90;;;;;;5131589;27;20221;-59
2022/05/06 04:30:22;;;;;;;13.47;8.83;;;7.70;99.90;;;;;;5114994;27;20278;-59
2022/05/06 04:33:04;;;;;;;12.70;9.20;;;7.80;99.90;;;;;;5113507;27;20649;-60
2022/05/06 04:35:33;;;;;;;10.73;7.67;;;7.80;99.90;;;;;;5114956;27;20685;-59
2022/05/06 04:38:03;;;;;;;8.90;7.90;;;7.80;99.90;;;;;;5115562;27;20327;-59
2022/05/06 04:40:34;;;;;;;8.07;6.40;;;7.80;99.90;;;;;;5115354;27;20233;-59
2022/05/06 04:43:05;;;;;;;7.90;6.50;;;7.90;99.90;;;;;;5114123;27;20245;-59
2022/05/06 04:45:38;;;;;;;7.13;6.23;;;7.90;99.90;;;;;;5130825;27;20225;-59
2022/05/06 04:48:11;;;;;;;8.50;6.07;;;8.00;99.90;;;;;;5115033;27;20233;-59
2022/05/06 04:50:43;;;;;;;7.63;5.93;;;8.10;99.90;;;;;;5115604;27;20233;-59
2022/05/06 04:53:13;;;;;;;7.90;6.87;;;8.10;99.90;;;;;;5113523;27;20243;-59
2022/05/06 04:55:43;;;;;;;9.03;7.67;;;8.30;99.90;;;;;;5106905;27;20248;-59
2022/05/06 04:58:14;;;;;;;10.00;8.20;;;8.40;99.90;;;;;;5115227;27;20324;-59
2022/05/06 05:00:44;;;;;;;9.87;7.23;;;8.40;99.90;;;;;;5106322;27;20648;-60
2022/05/06 05:03:13;;;;;;;10.63;8.23;;;8.50;99.90;;;;;;5113483;27;20599;-59
2022/05/06 05:05:41;;;;;;;11.37;8.37;;;8.60;99.90;;;;;;5114317;27;20229;-59
2022/05/06 05:08:09;;;;;;;11.20;8.93;;;8.90;99.90;;;;;;5114497;27;20234;-59
2022/05/06 05:10:45;;;;;;;11.30;8.80;;;9.00;99.90;;;;;;5112583;27;20261;-59
2022/05/06 05:13:16;;;;;;;13.87;10.20;;;9.10;99.90;;;;;;5131468;27;20779;-61
2022/05/06 05:15:45;;;;;;;14.33;10.13;;;9.40;99.90;;;;;;5107509;27;20774;-62
2022/05/06 05:18:13;;;;;;;12.27;9.57;;;9.60;99.90;;;;;;5111799;28;20326;-61
2022/05/06 05:20:42;;;;;;;12.57;10.23;;;9.70;99.90;;;;;;5112964;27;20244;-59
2022/05/06 05:23:11;;;;;;;16.07;10.87;;;9.90;99.90;;;;;;5100981;28;20630;-59
2022/05/06 05:25:41;;;;;;;14.87;11.07;;;10.10;99.90;;;;;;5108077;28;20689;-59
2022/05/06 05:28:10;;;;;;;12.33;10.27;;;10.20;99.90;;;;;;5112593;27;20258;-59
2022/05/06 05:30:42;;;;;;;12.40;9.83;;;10.20;99.90;;;;;;5110841;28;20685;-59
2022/05/06 05:33:11;;;;;;;11.20;9.87;;;10.40;99.90;;;;;;5109745;28;20242;-59
2022/05/06 05:35:47;;;;;;;18.80;11.17;;;10.60;99.90;;;;;;5109910;27;20234;-59
2022/05/06 05:38:16;;;;;;;18.20;11.53;;;10.80;99.90;;;;;;5110032;28;20414;-61
2022/05/06 05:40:44;;;;;;;17.50;12.47;;;11.10;99.90;;;;;;5110627;27;20779;-60
2022/05/06 05:48:47;;;;;;;17.10;12.73;;;11.60;99.90;;;;;;5110288;27;20240;-59
2022/05/06 05:51:15;;;;;;;18.10;12.07;;;11.80;99.90;;;;;;5112283;27;20365;-61
2022/05/06 05:53:51;;;;;;;17.33;12.97;;;12.10;99.90;;;;;;5109179;27;20620;-59
2022/05/06 05:56:20;;;;;;;20.10;13.93;;;12.20;99.90;;;;;;5110221;27;20242;-59
2022/05/06 05:58:50;;;;;;;19.57;13.40;;;12.20;99.90;;;;;;5110480;27;20231;-59
2022/05/06 06:01:22;;;;;;;19.60;14.07;;;12.30;99.90;;;;;;5108561;27;20240;-59
2022/05/06 06:03:51;;;;;;;15.93;13.67;;;12.50;99.90;;;;;;5110430;27;20237;-59
2022/05/06 06:06:19;;;;;;;19.77;13.60;;;12.70;99.90;;;;;;5109807;28;20237;-59
2022/05/06 06:08:51;;;;;;;20.50;13.63;;;13.00;99.90;;;;;;5110190;27;20237;-59
2022/05/06 06:11:20;;;;;;;22.13;14.73;;;13.20;99.90;;;;;;5110337;27;20696;-59
2022/05/06 06:13:51;;;;;;;19.70;14.57;;;13.40;99.90;;;;;;5108867;28;20240;-59
2022/05/06 06:16:24;;;;;;;22.07;14.93;;;13.60;99.90;;;;;;5101660;28;20665;-59
2022/05/06 06:18:54;;;;;;;18.40;13.67;;;13.80;99.90;;;;;;5109514;28;20245;-59
2022/05/06 06:21:24;;;;;;;18.40;14.70;;;14.00;99.90;;;;;;5109980;27;20769;-60
2022/05/06 06:23:53;;;;;;;21.73;14.93;;;14.10;99.90;;;;;;5108229;28;20776;-59
2022/05/06 06:26:21;;;;;;;20.13;14.10;;;14.40;99.90;;;;;;5104471;28;20233;-60
2022/05/06 06:28:50;;;;;;;19.00;14.50;;;14.60;99.90;;;;;;5107937;27;20244;-59
2022/05/06 06:31:18;;;;;;;17.73;15.30;;;14.70;99.90;;;;;;5110790;27;20313;-60
2022/05/06 06:33:50;;;;;;;17.73;14.17;;;14.90;99.90;;;;;;5103938;28;20865;-59
2022/05/06 06:36:27;;;;;;;17.87;13.13;;;14.90;99.90;;;;;;5109588;27;20248;-59
2022/05/06 06:38:55;;;;;;;16.47;13.73;;;15.00;99.90;;;;;;5099155;28;20245;-59
2022/05/06 06:41:25;;;;;;;16.30;13.40;;;15.20;99.90;;;;;;5089581;28;20234;-59
2022/05/06 06:43:55;;;;;;;19.37;14.70;;;15.30;99.90;;;;;;5105328;27;20261;-59
2022/05/06 06:46:37;;;;;;;18.07;14.27;;;15.40;99.90;;;;;;5109402;28;20598;-61
2022/05/06 06:49:27;;;;;;;19.20;15.47;;;15.50;99.90;;;;;;5107919;27;20234;-60
2022/05/06 06:52:03;;;;;;;18.03;14.13;;;15.60;99.90;;;;;;5109265;27;20236;-60
2022/05/06 06:54:31;;;;;;;18.77;14.20;;;15.80;99.90;;;;;;5110005;27;20257;-59
2022/05/06 06:56:59;;;;;;;20.53;15.77;;;16.20;99.90;;;;;;5104212;27;20619;-59
2022/05/06 06:59:27;;;;;;;20.37;15.50;;;16.50;99.90;;;;;;5105943;27;20593;-59
2022/05/06 07:01:55;;;;;;;16.70;14.13;;;16.70;99.90;;;;;;5110729;27;20237;-61
2022/05/06 07:04:24;;;;;;;19.77;14.20;;;16.80;99.90;;;;;;5108013;27;20244;-59
2022/05/06 07:12:25;;;;;;;17.47;14.30;;;17.20;99.90;;;;;;5100159;27;20242;-59
2022/05/06 07:14:54;;;;;;;16.13;14.00;;;17.40;99.90;;;;;;5109263;27;20225;-62
2022/05/06 07:17:22;;;;;;;17.80;14.93;;;17.70;99.90;;;;;;5126895;27;20229;-60
2022/05/06 07:19:51;;;;;;;18.17;14.63;;;18.00;99.90;;;;;;5129213;27;20710;-59
2022/05/06 07:22:20;;;;;;;17.17;13.10;;;18.50;99.90;;;;;;5126828;27;20596;-60
2022/05/06 07:24:54;;;;;;;17.10;12.40;;;18.50;99.90;;;;;;5128606;27;20237;-60
2022/05/06 07:27:23;;;;;;;13.77;12.23;;;18.60;99.90;;;;;;5130618;27;20321;-60
2022/05/06 07:29:51;;;;;;;14.37;12.17;;;18.70;99.90;;;;;;5129726;27;20278;-61
2022/05/06 07:32:20;;;;;;;15.70;12.23;;;18.80;99.90;;;;;;5129215;27;20230;-59
2022/05/06 07:34:48;;;;;;;15.10;12.40;;;18.70;99.90;;;;;;5130779;27;20665;-60
2022/05/06 07:37:17;;;;;;;16.40;12.23;;;19.00;99.90;;;;;;5131043;28;20250;-60
2022/05/06 07:39:46;;;;;;;15.80;11.70;;;19.00;99.90;;;;;;5131312;28;20312;-60
2022/05/06 07:42:14;;;;;;;14.70;12.03;;;19.10;99.90;;;;;;5130452;28;20254;-59
2022/05/06 07:44:42;;;;;;;15.43;12.73;;;19.40;99.90;;;;;;5130457;27;20239;-60
2022/05/06 07:47:11;;;;;;;16.33;12.43;;;19.50;99.90;;;;;;5130526;27;20252;-62
2022/05/06 07:49:39;;;;;;;13.00;10.30;;;19.60;99.90;;;;;;5130987;27;20660;-60
2022/05/06 07:52:07;;;;;;;11.53;10.03;;;19.70;99.90;;;;;;5129951;27;20240;-60
2022/05/06 07:54:36;;;;;;;15.10;10.97;;;20.50;99.90;;;;;;5130338;27;20281;-60
2022/05/06 07:57:09;;;;;;;13.27;11.13;;;20.60;99.90;;;;;;5130255;27;20606;-60
2022/05/06 07:59:38;;;;;;;17.40;11.87;;;20.70;99.90;;;;;;5126660;27;20267;-60
2022/05/06 08:04:52;;;;;;;10.40;9.00;;;20.80;99.90;;;;;;5131298;27;20239;-60
2022/05/06 08:07:21;;;;;;;12.67;10.07;;;21.00;99.90;;;;;;5133873;27;20237;-59
2022/05/06 08:09:49;;;;;;;12.97;10.53;;;21.30;99.90;;;;;;5134404;27;20318;-59
2022/05/06 08:12:19;;;;;;;12.00;10.03;;;21.10;99.90;;;;;;5133103;27;20278;-60
2022/05/06 08:14:47;;;;;;;11.57;9.87;;;21.10;99.90;;;;;;5134192;27;20264;-59
2022/05/06 08:17:15;;;;;;;12.97;9.83;;;21.30;99.90;;;;;;5134368;27;20320;-59
2022/05/06 08:19:43;;;;;;;14.17;10.70;;;21.50;99.90;;;;;;5133528;27;20262;-60
2022/05/06 08:22:11;;;;;;;12.43;10.27;;;21.50;99.90;;;;;;5132606;27;20252;-61
2022/05/06 08:24:40;;;;;;;13.73;11.03;;;21.70;99.90;;;;;;5133920;27;20249;-60
2022/05/06 08:27:29;;;;;;;12.47;11.13;;;21.90;99.90;;;;;;5130453;27;20241;-59
2022/05/06 08:29:57;;;;;;;10.77;9.40;;;22.00;99.90;;;;;;5129521;27;20599;-60
2022/05/06 08:32:25;;;;;;;16.30;10.87;;;22.40;99.90;;;;;;5132467;27;20328;-59
2022/05/06 08:34:53;;;;;;;14.43;10.40;;;22.60;99.90;;;;;;5133658;27;20263;-59
2022/05/06 08:37:24;;;;;;;12.90;9.73;;;22.50;99.90;;;;;;5133493;27;20229;-59
2022/05/06 08:39:52;;;;;;;13.87;10.53;;;22.40;99.90;;;;;;5133399;27;20267;-61
2022/05/06 08:42:22;;;;;;;13.30;9.90;;;22.60;99.90;;;;;;5131855;27;20316;-59
2022/05/06 08:53:09;;;;;;;12.83;10.63;;;23.00;99.90;;;;;;5132285;27;20305;-60
2022/05/06 08:55:37;;;;;;;11.43;9.60;;;23.30;99.90;;;;;;5132947;27;20229;-61
2022/05/06 08:58:07;;;;;;;12.30;10.53;;;23.40;99.90;;;;;;5124636;27;20294;-60
2022/05/06 09:00:36;;;;;;;14.37;11.23;;;23.20;99.90;;;;;;5133401;27;20245;-60
2022/05/06 09:03:04;;;;;;;16.57;10.87;;;23.40;99.90;;;;;;5131842;27;20321;-60
2022/05/06 09:05:32;;;;;;;11.63;9.80;;;23.60;99.90;;;;;;5133291;27;20739;-59
2022/05/06 09:08:03;;;;;;;12.47;9.53;;;23.60;99.90;;;;;;5130939;27;20233;-59
2022/05/06 09:10:31;;;;;;;14.43;9.50;;;23.90;99.90;;;;;;5132023;27;20253;-61
2022/05/06 09:13:01;;;;;;;11.27;9.30;;;23.90;99.90;;;;;;5127059;27;20274;-60
2022/05/06 09:18:22;;;;;;;13.50;9.47;;;23.50;99.90;;;;;;5131281;27;20316;-60
2022/05/06 09:21:09;;;;;;;16.00;11.73;;;23.40;99.90;;;;;;5131680;27;20684;-61
2022/05/06 09:23:38;;;;;;;19.13;12.67;;;22.00;99.90;;;;;;5130857;27;20316;-61
2022/05/06 09:26:18;;;;;;;15.57;11.67;;;21.40;99.90;;;;;;5131810;27;20329;-60
2022/05/06 09:28:46;;;;;;;13.03;11.10;;;21.50;99.90;;;;;;5130392;27;20260;-61
2022/05/06 09:31:15;;;;;;;13.77;11.23;;;21.60;99.90;;;;;;5132122;27;20228;-60
2022/05/06 09:33:46;;;;;;;14.60;10.43;;;22.10;99.90;;;;;;5128646;27;20278;-59
2022/05/06 09:36:24;;;;;;;15.23;10.70;;;22.90;99.90;;;;;;5132464;27;20744;-61
2022/05/06 09:39:03;;;;;;;11.87;10.00;;;23.70;99.90;;;;;;5126302;27;20271;-61
2022/05/06 09:41:32;;;;;;;15.30;11.70;;;22.80;99.90;;;;;;5126165;27;20234;-60
2022/05/06 09:44:00;;;;;;;15.10;11.40;;;21.70;99.90;;;;;;5130495;27;20231;-60
2022/05/06 09:46:29;;;;;;;15.57;10.70;;;21.20;99.90;;;;;;5131951;27;20715;-59
2022/05/06 09:49:03;;;;;;;14.13;10.50;;;21.30;99.90;;;;;;5131366;27;20239;-60
2022/05/06 09:51:52;;;;;;;13.23;9.63;;;21.40;99.90;;;;;;5131306;27;20603;-60
2022/05/06 09:54:32;;;;;;;12.17;9.77;;;22.00;99.90;;;;;;5130878;27;20314;-61
2022/05/06 09:57:03;;;;;;;11.77;9.37;;;22.40;99.90;;;;;;5129933;27;20241;-59
2022/05/06 09:59:31;;;;;;;10.83;9.60;;;23.10;99.90;;;;;;5131463;27;20228;-61
2022/05/06 10:02:00;;;;;;;13.00;10.37;;;23.60;99.90;;;;;;5131358;27;20221;-60
2022/05/06 10:04:36;;;;;;;13.03;9.90;;;23.70;99.90;;;;;;5131054;27;20658;-60
2022/05/06 10:07:07;;;;;;;11.93;10.20;;;23.50;99.90;;;;;;5131451;27;20230;-60
2022/05/06 10:09:41;;;;;;;10.50;9.37;;;23.10;99.90;;;;;;5130865;27;20604;-60
2022/05/06 10:12:12;;;;;;;14.07;8.90;;;23.10;99.90;;;;;;5116115;27;20245;-60
2022/05/06 10:14:42;;;;;;;9.40;8.30;;;23.80;99.90;;;;;;5123450;27;20554;-60
2022/05/06 10:17:11;;;;;;;10.30;8.63;;;24.10;99.90;;;;;;5131129;27;20263;-60
2022/05/06 10:19:47;;;;;;;10.23;8.87;;;24.10;99.90;;;;;;5130265;27;20234;-60
2022/05/06 10:22:16;;;;;;;13.77;9.53;;;24.30;99.90;;;;;;5127685;27;20252;-61
2022/05/06 10:24:49;;;;;;;10.50;8.70;;;23.40;99.90;;;;;;5131624;27;20237;-60
2022/05/06 10:32:25;;;;;;;10.20;9.07;;;22.90;99.90;;;;;;5130359;27;20236;-61
2022/05/06 10:33:16;;;;;;;9.43;8.33;;;23.50;99.90;;;;;;5121056;27;20693;-60
2022/05/06 10:35:48;;;;;;;9.40;8.17;;;23.30;99.90;;;;;;5131739;27;20593;-60
2022/05/06 10:38:18;;;;;;;11.70;9.20;;;23.00;99.90;;;;;;5131618;27;20233;-61
2022/05/06 10:40:54;;;;;;;12.10;9.07;;;23.00;99.90;;;;;;5130885;27;20251;-60
2022/05/06 10:43:50;;;;;;;10.17;8.37;;;23.20;99.90;;;;;;5120634;27;20704;-60
2022/05/06 10:46:36;;;;;;;10.37;7.27;;;24.00;99.90;;;;;;5122618;27;20592;-61
2022/05/06 10:49:47;;;;;;;8.90;7.53;;;24.70;99.90;;;;;;5122378;27;20703;-61
2022/05/06 10:52:42;;;;;;;10.43;6.83;;;24.90;99.90;;;;;;5122475;27;20239;-62
2022/05/06 10:55:12;;;;;;;10.00;8.10;;;24.00;99.90;;;;;;5122669;27;20254;-60
2022/05/06 10:58:03;;;;;;;7.60;6.80;;;23.30;99.90;;;;;;5123081;27;20238;-60
2022/05/06 11:00:33;;;;;;;8.23;6.47;;;24.00;99.90;;;;;;5113361;27;20776;-60
2022/05/06 11:03:01;;;;;;;8.73;6.50;;;24.40;99.90;;;;;;5120208;27;20258;-61
2022/05/06 11:05:31;;;;;;;8.63;7.73;;;24.20;99.90;;;;;;5121403;27;20277;-60
2022/05/06 11:08:03;;;;;;;8.73;6.70;;;24.20;99.90;;;;;;5121534;27;20863;-60
2022/05/06 11:10:34;;;;;;;9.37;6.90;;;24.00;99.90;;;;;;5121048;27;20327;-60
2022/05/06 11:13:25;;;;;;;7.90;6.87;;;23.60;99.90;;;;;;5120159;27;20234;-61
2022/05/06 11:15:55;;;;;;;9.07;6.43;;;23.50;99.90;;;;;;5119516;28;20322;-61
2022/05/06 11:18:25;;;;;;;11.60;7.67;;;23.30;99.90;;;;;;5121427;27;20237;-61
2022/05/06 11:20:53;;;;;;;12.70;8.57;;;22.60;99.90;;;;;;5122487;27;20774;-62
2022/05/06 11:23:30;;;;;;;10.23;8.27;;;22.10;99.90;;;;;;5121306;27;20256;-61
2022/05/06 11:25:59;;;;;;;8.57;7.67;;;21.90;99.90;;;;;;5122254;27;20651;-60
2022/05/06 11:28:30;;;;;;;9.43;7.20;;;22.20;99.90;;;;;;5122713;27;20261;-61
2022/05/06 11:31:00;;;;;;;9.73;7.80;;;23.00;99.90;;;;;;5122270;28;20233;-60
2022/05/06 11:33:31;;;;;;;10.30;7.47;;;23.10;99.90;;;;;;5119789;27;20225;-60
2022/05/06 11:36:03;;;;;;;8.00;6.80;;;23.60;99.90;;;;;;5122027;27;20751;-62
2022/05/06 11:38:35;;;;;;;8.53;6.60;;;24.40;99.90;;;;;;5125045;27;20235;-62
2022/05/06 11:41:08;;;;;;;9.30;7.27;;;25.30;99.90;;;;;;5125684;27;20249;-62
2022/05/06 11:43:36;;;;;;;9.33;7.60;;;25.70;99.90;;;;;;5124395;27;20655;-61
2022/05/06 11:48:51;;;;;;;7.43;6.17;;;26.10;99.90;;;;;;5124905;27;21274;-60
2022/05/06 11:51:22;;;;;;;8.10;5.63;;;26.50;99.90;;;;;;5125554;27;20227;-60
2022/05/06 11:53:53;;;;;;;6.53;5.43;;;26.60;99.00;;;;;;5124084;27;20242;-61
2022/05/06 11:56:22;;;;;;;8.80;5.00;;;26.10;99.00;;;;;;5124999;27;20249;-61
2022/05/06 11:58:52;;;;;;;7.27;4.43;;;25.40;99.50;;;;;;5125333;27;20244;-61
2022/05/06 12:01:28;;;;;;;6.47;4.63;;;24.90;99.40;;;;;;5124277;27;20258;-60
2022/05/06 12:04:00;;;;;;;4.23;3.83;;;24.60;99.80;;;;;;5124079;27;20598;-61
2022/05/06 12:06:37;;;;;;;7.80;4.63;;;24.20;99.10;;;;;;5124949;27;20339;-61
2022/05/06 12:09:12;;;;;;;7.60;3.87;;;23.90;99.00;;;;;;5123322;27;20369;-61
2022/05/06 12:11:41;;;;;;;4.07;3.67;;;24.00;99.90;;;;;;5125151;27;20291;-62
2022/05/06 12:14:12;;;;;;;5.67;3.70;;;24.20;99.90;;;;;;5125081;27;20663;-61
2022/05/06 12:16:55;;;;;;;5.50;3.60;;;24.50;99.90;;;;;;5126010;27;20253;-60
2022/05/06 12:19:37;;;;;;;5.17;3.73;;;24.80;99.90;;;;;;5125294;27;20271;-61
2022/05/06 12:22:10;;;;;;;5.33;3.70;;;24.80;99.90;;;;;;5125507;27;20238;-62
2022/05/06 12:24:41;;;;;;;5.83;3.60;;;24.70;99.40;;;;;;5125676;27;20240;-62
2022/05/06 12:27:09;;;;;;;5.93;3.90;;;24.80;99.70;;;;;;5126191;27;20267;-60
2022/05/06 12:29:38;;;;;;;5.57;3.63;;;24.70;99.90;;;;;;5125732;27;20287;-61
2022/05/06 12:32:07;;;;;;;4.23;3.07;;;24.90;99.90;;;;;;5123152;27;20226;-62
2022/05/06 12:34:36;;;;;;;4.67;3.00;;;24.80;99.10;;;;;;5124143;27;20772;-62
2022/05/06 12:37:12;;;;;;;3.70;3.37;;;24.40;98.20;;;;;;5121542;27;20252;-60
2022/05/06 12:39:44;;;;;;;5.60;3.97;;;24.30;97.70;;;;;;5124585;27;20584;-60
2022/05/06 12:42:13;;;;;;;3.90;3.37;;;23.90;99.50;;;;;;5122263;27;20717;-61
2022/05/06 12:44:41;;;;;;;4.03;3.63;;;23.70;99.90;;;;;;5124308;27;20230;-61
2022/05/06 12:47:14;;;;;;;5.50;3.87;;;23.30;99.90;;;;;;5124053;27;20241;-62
2022/05/06 12:49:41;;;;;;;6.00;3.60;;;22.90;99.90;;;;;;5124306;27;20768;-62
2022/05/06 12:52:10;;;;;;;6.53;3.63;;;23.00;99.90;;;;;;5122895;27;20259;-62
2022/05/06 12:54:39;;;;;;;3.83;3.43;;;23.10;99.90;;;;;;5123933;27;20275;-63
2022/05/06 12:57:08;;;;;;;5.57;3.80;;;23.20;99.90;;;;;;5123193;27;20239;-63
2022/05/06 12:59:37;;;;;;;5.13;3.80;;;23.40;99.80;;;;;;5123999;27;20233;-61
2022/05/06 13:02:06;;;;;;;8.43;3.80;;;23.00;99.90;;;;;;5123584;27;20625;-62
2022/05/06 13:04:36;;;;;;;5.20;4.20;;;22.90;99.90;;;;;;5123989;27;20256;-62
2022/05/06 13:07:04;;;;;;;5.87;4.10;;;22.60;99.90;;;;;;5123762;27;20238;-60
2022/05/06 13:09:33;;;;;;;4.67;4.13;;;22.50;99.90;;;;;;5122944;27;20249;-61
2022/05/06 13:12:01;;;;;;;5.83;3.87;;;22.30;99.90;;;;;;5123526;27;21250;-62
2022/05/06 13:14:30;;;;;;;5.27;3.73;;;22.40;99.90;;;;;;5123656;27;20241;-60
2022/05/06 13:16:59;;;;;;;4.37;3.47;;;22.70;99.90;;;;;;5123320;27;20234;-60
2022/05/06 13:19:29;;;;;;;5.70;3.30;;;22.60;99.90;;;;;;5123527;27;20237;-60
2022/05/06 13:21:57;;;;;;;5.63;3.63;;;22.80;99.90;;;;;;5122951;27;20239;-62
2022/05/06 13:24:25;;;;;;;5.60;3.57;;;22.80;99.90;;;;;;5122818;27;20244;-60
2022/05/06 13:26:53;;;;;;;5.33;3.57;;;22.80;99.90;;;;;;5123207;27;20225;-62
2022/05/06 13:29:21;;;;;;;7.77;3.70;;;22.90;99.90;;;;;;5123858;27;20236;-60
2022/05/06 13:31:51;;;;;;;3.57;3.07;;;22.70;99.90;;;;;;5105874;27;20233;-61
2022/05/06 13:34:19;;;;;;;4.20;3.17;;;22.60;99.90;;;;;;5122922;27;20241;-60
2022/05/06 13:36:47;;;;;;;3.77;2.97;;;22.80;99.90;;;;;;5121503;27;20221;-61
2022/05/06 13:39:15;;;;;;;5.93;3.53;;;23.00;99.90;;;;;;5118283;27;20743;-61
2022/05/06 13:41:44;;;;;;;5.27;3.50;;;23.10;99.40;;;;;;5116967;27;20245;-61
2022/05/06 13:44:12;;;;;;;8.00;2.97;;;22.80;99.90;;;;;;5118532;27;20247;-60
2022/05/06 13:46:40;;;;;;;3.40;2.77;;;22.50;99.90;;;;;;5119021;27;20421;-62